Terminal Aerodrome Forecast
Issued by NWS Knoxville/Tri Cities, TN

Home | Current Version | Previous Version | Text Only | Print | Product List | Glossary On
Versions: 1 2 3 4 5 6 7 8 9 10 11 12 13 14 15 16 17 18 19 20 21 22 23 24 25 26 27 28 29 30 31 32 33 34 35 36 37 38 39 40 41
000
FTUS44 KMRX 211729
TAFTYS
TAF
KTYS 211729Z 2118/2218 25006KT P6SM SCT045
     FM212000 25008KT P6SM VCTS SCT050CB BKN250
     FM220100 23003KT P6SM SCT060 BKN250
     FM220900 VRB02KT 6SM BR FEW005 SCT200
     FM221300 24007KT P6SM SCT045=

USA.gov is the U.S. government's official web portal to all federal, state and local government web resources and services.